Terminal Aerodrome Forecast
Issued by NWS

Home | Current Version | Previous Version | Text Only | Print | Product List | Glossary On
Versions: 1 2 3 4 5 6 7 8 9 10 11 12 13
597
FTUS46 KMFR 151141
TAFOTH
TAF
KOTH 151141Z 1512/1612 15005KT P6SM BKN250
     FM151700 34006KT P6SM -RA BKN025 OVC050
     FM151900 34011KT P6SM -RA BKN012 OVC025
     FM160300 35006KT P6SM VCSH OVC012=

USA.gov is the U.S. government's official web portal to all federal, state and local government web resources and services.